sensor_id;sensor_type;location;lat;lon;timestamp;P1;durP1;ratioP1;P2;durP2;ratioP2
35084;SDS011;21267;51.032;6.998;2023-10-08T00:01:38;10.10;;;4.50;;
35084;SDS011;21267;51.032;6.998;2023-10-08T00:04:09;8.38;;;4.28;;
35084;SDS011;21267;51.032;6.998;2023-10-08T00:06:45;7.45;;;4.38;;
35084;SDS011;21267;51.032;6.998;2023-10-08T00:11:41;7.10;;;3.70;;
35084;SDS011;21267;51.032;6.998;2023-10-08T00:14:08;8.23;;;3.67;;
35084;SDS011;21267;51.032;6.998;2023-10-08T00:16:36;7.50;;;4.05;;
35084;SDS011;21267;51.032;6.998;2023-10-08T00:19:06;4.72;;;3.35;;
35084;SDS011;21267;51.032;6.998;2023-10-08T00:21:41;6.05;;;3.60;;
35084;SDS011;21267;51.032;6.998;2023-10-08T00:24:11;8.90;;;3.90;;
35084;SDS011;21267;51.032;6.998;2023-10-08T00:26:41;7.68;;;3.72;;
35084;SDS011;21267;51.032;6.998;2023-10-08T00:29:08;10.03;;;4.00;;
35084;SDS011;21267;51.032;6.998;2023-10-08T00:31:48;7.20;;;4.22;;
35084;SDS011;21267;51.032;6.998;2023-10-08T00:34:18;10.05;;;3.97;;
35084;SDS011;21267;51.032;6.998;2023-10-08T00:36:46;6.30;;;3.88;;
35084;SDS011;21267;51.032;6.998;2023-10-08T00:39:14;5.18;;;3.38;;
35084;SDS011;21267;51.032;6.998;2023-10-08T00:41:43;6.28;;;3.72;;
35084;SDS011;21267;51.032;6.998;2023-10-08T00:44:12;7.35;;;4.07;;
35084;SDS011;21267;51.032;6.998;2023-10-08T00:46:49;6.13;;;3.63;;
35084;SDS011;21267;51.032;6.998;2023-10-08T00:49:23;10.63;;;3.75;;
35084;SDS011;21267;51.032;6.998;2023-10-08T00:51:54;4.65;;;3.55;;
35084;SDS011;21267;51.032;6.998;2023-10-08T00:54:35;11.10;;;3.75;;
35084;SDS011;21267;51.032;6.998;2023-10-08T00:57:23;10.33;;;8.17;;
35084;SDS011;21267;51.032;6.998;2023-10-08T00:59:52;6.13;;;3.33;;
35084;SDS011;21267;51.032;6.998;2023-10-08T01:02:21;6.13;;;3.35;;
35084;SDS011;21267;51.032;6.998;2023-10-08T01:04:56;4.57;;;2.85;;
35084;SDS011;21267;51.032;6.998;2023-10-08T01:07:23;6.93;;;4.18;;
35084;SDS011;21267;51.032;6.998;2023-10-08T01:09:51;7.30;;;3.40;;
35084;SDS011;21267;51.032;6.998;2023-10-08T01:12:23;9.27;;;3.60;;
35084;SDS011;21267;51.032;6.998;2023-10-08T01:14:54;7.38;;;3.65;;
35084;SDS011;21267;51.032;6.998;2023-10-08T01:17:22;9.38;;;3.85;;
35084;SDS011;21267;51.032;6.998;2023-10-08T01:19:52;5.20;;;3.03;;
35084;SDS011;21267;51.032;6.998;2023-10-08T01:22:42;9.25;;;3.92;;
35084;SDS011;21267;51.032;6.998;2023-10-08T01:25:09;7.23;;;3.50;;
35084;SDS011;21267;51.032;6.998;2023-10-08T01:30:04;5.60;;;3.60;;
35084;SDS011;21267;51.032;6.998;2023-10-08T01:32:44;5.63;;;3.22;;
35084;SDS011;21267;51.032;6.998;2023-10-08T01:35:12;6.35;;;2.95;;
35084;SDS011;21267;51.032;6.998;2023-10-08T01:40:26;5.75;;;3.28;;
35084;SDS011;21267;51.032;6.998;2023-10-08T01:42:56;6.65;;;3.47;;
35084;SDS011;21267;51.032;6.998;2023-10-08T01:45:26;5.60;;;3.67;;
35084;SDS011;21267;51.032;6.998;2023-10-08T01:47:53;8.27;;;3.90;;
35084;SDS011;21267;51.032;6.998;2023-10-08T01:50:22;6.78;;;3.92;;
35084;SDS011;21267;51.032;6.998;2023-10-08T01:52:49;7.22;;;3.80;;
35084;SDS011;21267;51.032;6.998;2023-10-08T01:55:19;11.85;;;4.38;;
35084;SDS011;21267;51.032;6.998;2023-10-08T01:57:46;6.70;;;3.50;;
35084;SDS011;21267;51.032;6.998;2023-10-08T02:02:41;9.43;;;3.60;;
35084;SDS011;21267;51.032;6.998;2023-10-08T02:05:08;8.48;;;3.90;;
35084;SDS011;21267;51.032;6.998;2023-10-08T02:07:36;7.40;;;3.70;;
35084;SDS011;21267;51.032;6.998;2023-10-08T02:10:03;7.60;;;3.73;;
35084;SDS011;21267;51.032;6.998;2023-10-08T02:12:31;8.45;;;4.05;;
35084;SDS011;21267;51.032;6.998;2023-10-08T02:14:58;9.90;;;4.17;;
35084;SDS011;21267;51.032;6.998;2023-10-08T02:17:25;6.70;;;4.07;;
35084;SDS011;21267;51.032;6.998;2023-10-08T02:19:52;9.77;;;3.53;;
35084;SDS011;21267;51.032;6.998;2023-10-08T02:22:18;5.50;;;3.78;;
35084;SDS011;21267;51.032;6.998;2023-10-08T02:24:46;6.22;;;3.88;;
35084;SDS011;21267;51.032;6.998;2023-10-08T02:27:14;5.82;;;3.95;;
35084;SDS011;21267;51.032;6.998;2023-10-08T02:29:41;8.15;;;3.75;;
35084;SDS011;21267;51.032;6.998;2023-10-08T02:32:08;7.25;;;4.05;;
35084;SDS011;21267;51.032;6.998;2023-10-08T02:34:35;6.03;;;3.90;;
35084;SDS011;21267;51.032;6.998;2023-10-08T02:37:02;7.23;;;4.03;;
35084;SDS011;21267;51.032;6.998;2023-10-08T02:39:32;8.05;;;4.57;;
35084;SDS011;21267;51.032;6.998;2023-10-08T02:41:59;7.25;;;4.10;;
35084;SDS011;21267;51.032;6.998;2023-10-08T02:44:27;7.00;;;3.90;;
35084;SDS011;21267;51.032;6.998;2023-10-08T02:46:54;8.60;;;3.88;;
35084;SDS011;21267;51.032;6.998;2023-10-08T02:49:21;8.53;;;3.67;;
35084;SDS011;21267;51.032;6.998;2023-10-08T02:51:52;5.68;;;3.75;;
35084;SDS011;21267;51.032;6.998;2023-10-08T02:54:21;6.10;;;3.78;;
35084;SDS011;21267;51.032;6.998;2023-10-08T02:56:59;5.45;;;3.72;;
35084;SDS011;21267;51.032;6.998;2023-10-08T02:59:31;8.02;;;3.55;;
35084;SDS011;21267;51.032;6.998;2023-10-08T03:02:09;7.13;;;3.25;;
35084;SDS011;21267;51.032;6.998;2023-10-08T03:07:15;7.70;;;4.30;;
35084;SDS011;21267;51.032;6.998;2023-10-08T03:09:49;7.43;;;4.00;;
35084;SDS011;21267;51.032;6.998;2023-10-08T03:12:17;8.38;;;3.58;;
35084;SDS011;21267;51.032;6.998;2023-10-08T03:17:28;7.25;;;3.60;;
35084;SDS011;21267;51.032;6.998;2023-10-08T03:19:56;6.65;;;3.83;;
35084;SDS011;21267;51.032;6.998;2023-10-08T03:22:49;5.03;;;3.47;;
35084;SDS011;21267;51.032;6.998;2023-10-08T03:25:16;8.00;;;4.23;;
35084;SDS011;21267;51.032;6.998;2023-10-08T03:27:44;5.05;;;3.70;;
35084;SDS011;21267;51.032;6.998;2023-10-08T03:30:10;5.97;;;3.85;;
35084;SDS011;21267;51.032;6.998;2023-10-08T03:32:44;6.80;;;3.92;;
35084;SDS011;21267;51.032;6.998;2023-10-08T03:35:23;7.82;;;4.20;;
35084;SDS011;21267;51.032;6.998;2023-10-08T03:37:54;10.32;;;3.90;;
35084;SDS011;21267;51.032;6.998;2023-10-08T03:40:41;11.80;;;3.70;;
35084;SDS011;21267;51.032;6.998;2023-10-08T03:43:12;6.57;;;3.97;;
35084;SDS011;21267;51.032;6.998;2023-10-08T03:45:49;6.53;;;3.80;;
35084;SDS011;21267;51.032;6.998;2023-10-08T03:48:26;7.22;;;4.05;;
35084;SDS011;21267;51.032;6.998;2023-10-08T03:50:56;5.95;;;3.78;;
35084;SDS011;21267;51.032;6.998;2023-10-08T03:53:24;9.32;;;4.15;;
35084;SDS011;21267;51.032;6.998;2023-10-08T03:55:51;10.43;;;3.97;;
35084;SDS011;21267;51.032;6.998;2023-10-08T03:58:20;9.00;;;4.10;;
35084;SDS011;21267;51.032;6.998;2023-10-08T04:00:58;7.80;;;3.67;;
35084;SDS011;21267;51.032;6.998;2023-10-08T04:03:51;6.68;;;3.58;;
35084;SDS011;21267;51.032;6.998;2023-10-08T04:06:21;9.20;;;3.78;;
35084;SDS011;21267;51.032;6.998;2023-10-08T04:08:55;8.53;;;3.87;;
35084;SDS011;21267;51.032;6.998;2023-10-08T04:11:31;5.60;;;3.47;;
35084;SDS011;21267;51.032;6.998;2023-10-08T04:14:02;8.55;;;3.92;;
35084;SDS011;21267;51.032;6.998;2023-10-08T04:16:29;5.25;;;3.20;;
35084;SDS011;21267;51.032;6.998;2023-10-08T04:18:58;7.30;;;3.50;;
35084;SDS011;21267;51.032;6.998;2023-10-08T04:21:29;6.18;;;4.03;;
35084;SDS011;21267;51.032;6.998;2023-10-08T04:24:00;8.95;;;3.72;;
35084;SDS011;21267;51.032;6.998;2023-10-08T04:26:31;6.35;;;4.22;;
35084;SDS011;21267;51.032;6.998;2023-10-08T04:28:59;7.45;;;4.05;;
35084;SDS011;21267;51.032;6.998;2023-10-08T04:31:33;5.97;;;3.83;;
35084;SDS011;21267;51.032;6.998;2023-10-08T04:34:04;9.32;;;4.07;;
35084;SDS011;21267;51.032;6.998;2023-10-08T04:36:52;6.72;;;4.00;;
35084;SDS011;21267;51.032;6.998;2023-10-08T04:39:27;5.82;;;3.80;;
35084;SDS011;21267;51.032;6.998;2023-10-08T04:42:00;7.15;;;4.50;;
35084;SDS011;21267;51.032;6.998;2023-10-08T04:44:39;6.28;;;3.67;;
35084;SDS011;21267;51.032;6.998;2023-10-08T04:47:07;5.15;;;3.58;;
35084;SDS011;21267;51.032;6.998;2023-10-08T04:52:05;9.80;;;4.13;;
35084;SDS011;21267;51.032;6.998;2023-10-08T04:54:41;7.85;;;4.72;;
35084;SDS011;21267;51.032;6.998;2023-10-08T04:59:49;7.97;;;4.32;;
35084;SDS011;21267;51.032;6.998;2023-10-08T05:02:20;8.40;;;4.68;;
35084;SDS011;21267;51.032;6.998;2023-10-08T05:04:53;5.20;;;3.85;;
35084;SDS011;21267;51.032;6.998;2023-10-08T05:07:38;9.00;;;4.80;;
35084;SDS011;21267;51.032;6.998;2023-10-08T05:10:14;10.80;;;4.72;;
35084;SDS011;21267;51.032;6.998;2023-10-08T05:12:53;7.63;;;4.28;;
35084;SDS011;21267;51.032;6.998;2023-10-08T05:15:30;11.32;;;4.35;;
35084;SDS011;21267;51.032;6.998;2023-10-08T05:18:03;7.28;;;5.22;;
35084;SDS011;21267;51.032;6.998;2023-10-08T05:20:45;7.80;;;4.55;;
35084;SDS011;21267;51.032;6.998;2023-10-08T05:23:16;9.52;;;5.30;;
35084;SDS011;21267;51.032;6.998;2023-10-08T05:25:49;9.35;;;4.95;;
35084;SDS011;21267;51.032;6.998;2023-10-08T05:28:25;8.68;;;4.30;;
35084;SDS011;21267;51.032;6.998;2023-10-08T05:30:52;13.57;;;5.15;;
35084;SDS011;21267;51.032;6.998;2023-10-08T05:33:38;8.63;;;4.60;;
35084;SDS011;21267;51.032;6.998;2023-10-08T05:36:23;11.05;;;5.63;;
35084;SDS011;21267;51.032;6.998;2023-10-08T05:39:16;11.00;;;5.10;;
35084;SDS011;21267;51.032;6.998;2023-10-08T05:42:07;11.55;;;4.22;;
35084;SDS011;21267;51.032;6.998;2023-10-08T05:44:43;8.93;;;5.18;;
35084;SDS011;21267;51.032;6.998;2023-10-08T05:47:33;8.13;;;4.32;;
35084;SDS011;21267;51.032;6.998;2023-10-08T05:50:01;9.35;;;4.80;;
35084;SDS011;21267;51.032;6.998;2023-10-08T05:52:45;11.30;;;5.07;;
35084;SDS011;21267;51.032;6.998;2023-10-08T05:55:25;11.57;;;4.50;;
35084;SDS011;21267;51.032;6.998;2023-10-08T05:58:04;11.90;;;4.55;;
35084;SDS011;21267;51.032;6.998;2023-10-08T06:01:01;9.77;;;5.93;;
35084;SDS011;21267;51.032;6.998;2023-10-08T06:03:52;6.05;;;4.22;;
35084;SDS011;21267;51.032;6.998;2023-10-08T06:06:47;8.95;;;4.43;;
35084;SDS011;21267;51.032;6.998;2023-10-08T06:09:24;9.73;;;5.07;;
35084;SDS011;21267;51.032;6.998;2023-10-08T06:12:01;8.32;;;4.40;;
35084;SDS011;21267;51.032;6.998;2023-10-08T06:14:37;9.52;;;4.97;;
35084;SDS011;21267;51.032;6.998;2023-10-08T06:17:34;8.60;;;4.80;;
35084;SDS011;21267;51.032;6.998;2023-10-08T06:20:24;10.15;;;4.97;;
35084;SDS011;21267;51.032;6.998;2023-10-08T06:22:52;7.80;;;4.82;;
35084;SDS011;21267;51.032;6.998;2023-10-08T06:25:21;8.40;;;4.85;;
35084;SDS011;21267;51.032;6.998;2023-10-08T06:27:51;9.65;;;5.10;;
35084;SDS011;21267;51.032;6.998;2023-10-08T06:33:38;10.30;;;5.68;;
35084;SDS011;21267;51.032;6.998;2023-10-08T06:36:08;8.70;;;5.07;;
35084;SDS011;21267;51.032;6.998;2023-10-08T06:38:38;9.43;;;5.20;;
35084;SDS011;21267;51.032;6.998;2023-10-08T06:41:07;20.23;;;10.23;;
35084;SDS011;21267;51.032;6.998;2023-10-08T06:44:04;8.57;;;5.43;;
35084;SDS011;21267;51.032;6.998;2023-10-08T06:46:41;12.07;;;6.07;;
35084;SDS011;21267;51.032;6.998;2023-10-08T06:49:09;9.77;;;5.10;;
35084;SDS011;21267;51.032;6.998;2023-10-08T06:51:41;9.07;;;5.35;;
35084;SDS011;21267;51.032;6.998;2023-10-08T06:54:10;7.05;;;4.70;;
35084;SDS011;21267;51.032;6.998;2023-10-08T06:56:41;11.82;;;5.38;;
35084;SDS011;21267;51.032;6.998;2023-10-08T06:59:13;10.65;;;4.65;;
35084;SDS011;21267;51.032;6.998;2023-10-08T07:04:07;9.43;;;4.67;;
35084;SDS011;21267;51.032;6.998;2023-10-08T07:06:39;9.40;;;4.72;;
35084;SDS011;21267;51.032;6.998;2023-10-08T07:11:52;9.43;;;4.70;;
35084;SDS011;21267;51.032;6.998;2023-10-08T07:14:23;8.88;;;4.72;;
35084;SDS011;21267;51.032;6.998;2023-10-08T07:16:54;9.23;;;4.68;;
35084;SDS011;21267;51.032;6.998;2023-10-08T07:19:26;11.43;;;5.13;;
35084;SDS011;21267;51.032;6.998;2023-10-08T07:22:05;10.80;;;5.20;;
35084;SDS011;21267;51.032;6.998;2023-10-08T07:24:45;8.50;;;5.45;;
35084;SDS011;21267;51.032;6.998;2023-10-08T07:27:12;8.02;;;5.43;;
35084;SDS011;21267;51.032;6.998;2023-10-08T07:32:07;8.83;;;5.57;;
35084;SDS011;21267;51.032;6.998;2023-10-08T07:34:37;10.13;;;5.43;;
35084;SDS011;21267;51.032;6.998;2023-10-08T07:37:04;9.40;;;4.47;;
35084;SDS011;21267;51.032;6.998;2023-10-08T07:39:32;11.68;;;4.70;;
35084;SDS011;21267;51.032;6.998;2023-10-08T07:41:59;9.80;;;4.30;;
35084;SDS011;21267;51.032;6.998;2023-10-08T07:44:28;11.20;;;5.25;;
35084;SDS011;21267;51.032;6.998;2023-10-08T07:46:55;11.83;;;5.20;;
35084;SDS011;21267;51.032;6.998;2023-10-08T07:49:22;9.00;;;5.00;;
35084;SDS011;21267;51.032;6.998;2023-10-08T07:51:56;13.43;;;5.68;;
35084;SDS011;21267;51.032;6.998;2023-10-08T07:54:25;10.95;;;5.72;;
35084;SDS011;21267;51.032;6.998;2023-10-08T07:56:56;9.73;;;4.85;;
35084;SDS011;21267;51.032;6.998;2023-10-08T07:59:36;9.90;;;5.07;;
35084;SDS011;21267;51.032;6.998;2023-10-08T08:02:14;7.13;;;4.30;;
35084;SDS011;21267;51.032;6.998;2023-10-08T08:04:44;10.82;;;4.80;;
35084;SDS011;21267;51.032;6.998;2023-10-08T08:07:13;10.43;;;5.22;;
35084;SDS011;21267;51.032;6.998;2023-10-08T08:09:46;9.02;;;4.50;;
35084;SDS011;21267;51.032;6.998;2023-10-08T08:12:18;9.32;;;4.82;;
35084;SDS011;21267;51.032;6.998;2023-10-08T08:14:49;8.38;;;4.80;;
35084;SDS011;21267;51.032;6.998;2023-10-08T08:17:17;9.98;;;4.78;;
35084;SDS011;21267;51.032;6.998;2023-10-08T08:19:48;9.70;;;4.93;;
35084;SDS011;21267;51.032;6.998;2023-10-08T08:22:17;8.38;;;5.07;;
35084;SDS011;21267;51.032;6.998;2023-10-08T08:24:52;10.25;;;5.65;;
35084;SDS011;21267;51.032;6.998;2023-10-08T08:27:24;13.55;;;5.32;;
35084;SDS011;21267;51.032;6.998;2023-10-08T08:29:53;9.00;;;4.80;;
35084;SDS011;21267;51.032;6.998;2023-10-08T08:32:22;11.05;;;5.43;;
35084;SDS011;21267;51.032;6.998;2023-10-08T08:34:50;12.82;;;5.35;;
35084;SDS011;21267;51.032;6.998;2023-10-08T08:37:17;12.32;;;5.63;;
35084;SDS011;21267;51.032;6.998;2023-10-08T08:39:45;12.10;;;6.03;;
35084;SDS011;21267;51.032;6.998;2023-10-08T08:42:12;14.70;;;5.97;;
35084;SDS011;21267;51.032;6.998;2023-10-08T08:44:41;12.57;;;5.53;;
35084;SDS011;21267;51.032;6.998;2023-10-08T08:47:13;14.20;;;7.22;;
35084;SDS011;21267;51.032;6.998;2023-10-08T08:49:44;18.13;;;10.05;;
35084;SDS011;21267;51.032;6.998;2023-10-08T08:52:12;10.15;;;5.22;;
35084;SDS011;21267;51.032;6.998;2023-10-08T08:54:40;9.52;;;5.00;;
35084;SDS011;21267;51.032;6.998;2023-10-08T08:57:09;10.15;;;5.32;;
35084;SDS011;21267;51.032;6.998;2023-10-08T08:59:52;7.85;;;4.60;;
35084;SDS011;21267;51.032;6.998;2023-10-08T09:02:20;9.68;;;4.80;;
35084;SDS011;21267;51.032;6.998;2023-10-08T09:04:49;8.07;;;5.57;;
35084;SDS011;21267;51.032;6.998;2023-10-08T09:07:19;9.80;;;4.77;;
35084;SDS011;21267;51.032;6.998;2023-10-08T09:09:48;13.75;;;5.30;;
35084;SDS011;21267;51.032;6.998;2023-10-08T09:12:16;11.70;;;5.88;;
35084;SDS011;21267;51.032;6.998;2023-10-08T09:14:44;13.45;;;5.70;;
35084;SDS011;21267;51.032;6.998;2023-10-08T09:17:12;14.52;;;5.28;;
35084;SDS011;21267;51.032;6.998;2023-10-08T09:19:41;13.38;;;5.47;;
35084;SDS011;21267;51.032;6.998;2023-10-08T09:22:09;14.45;;;5.65;;
35084;SDS011;21267;51.032;6.998;2023-10-08T09:24:38;15.02;;;6.28;;
35084;SDS011;21267;51.032;6.998;2023-10-08T09:27:06;14.73;;;6.07;;
35084;SDS011;21267;51.032;6.998;2023-10-08T09:29:35;15.63;;;6.60;;
35084;SDS011;21267;51.032;6.998;2023-10-08T09:32:11;15.40;;;6.90;;
35084;SDS011;21267;51.032;6.998;2023-10-08T09:34:52;12.40;;;6.50;;
35084;SDS011;21267;51.032;6.998;2023-10-08T09:37:19;15.02;;;6.95;;
35084;SDS011;21267;51.032;6.998;2023-10-08T09:39:49;15.48;;;6.40;;
35084;SDS011;21267;51.032;6.998;2023-10-08T09:42:17;12.82;;;5.97;;
35084;SDS011;21267;51.032;6.998;2023-10-08T09:44:49;17.38;;;6.30;;
35084;SDS011;21267;51.032;6.998;2023-10-08T09:47:18;13.57;;;7.60;;
35084;SDS011;21267;51.032;6.998;2023-10-08T09:50:03;17.95;;;7.80;;
35084;SDS011;21267;51.032;6.998;2023-10-08T09:52:36;24.08;;;7.78;;
35084;SDS011;21267;51.032;6.998;2023-10-08T09:55:10;15.50;;;7.15;;
35084;SDS011;21267;51.032;6.998;2023-10-08T09:57:37;16.98;;;7.50;;
35084;SDS011;21267;51.032;6.998;2023-10-08T10:00:05;15.05;;;7.63;;
35084;SDS011;21267;51.032;6.998;2023-10-08T10:02:42;14.68;;;6.75;;
35084;SDS011;21267;51.032;6.998;2023-10-08T10:05:18;15.90;;;7.13;;
35084;SDS011;21267;51.032;6.998;2023-10-08T10:07:50;12.30;;;8.13;;
35084;SDS011;21267;51.032;6.998;2023-10-08T10:10:28;18.60;;;7.15;;
35084;SDS011;21267;51.032;6.998;2023-10-08T10:13:02;13.68;;;6.85;;
35084;SDS011;21267;51.032;6.998;2023-10-08T10:15:33;14.35;;;7.65;;
35084;SDS011;21267;51.032;6.998;2023-10-08T10:18:14;19.83;;;7.72;;
35084;SDS011;21267;51.032;6.998;2023-10-08T10:20:46;21.20;;;8.90;;
35084;SDS011;21267;51.032;6.998;2023-10-08T10:23:42;15.40;;;7.60;;
35084;SDS011;21267;51.032;6.998;2023-10-08T10:26:23;15.27;;;7.22;;
35084;SDS011;21267;51.032;6.998;2023-10-08T10:31:46;15.98;;;7.57;;
35084;SDS011;21267;51.032;6.998;2023-10-08T10:34:21;15.73;;;7.68;;
35084;SDS011;21267;51.032;6.998;2023-10-08T10:36:56;19.75;;;8.65;;
35084;SDS011;21267;51.032;6.998;2023-10-08T10:42:22;14.43;;;7.13;;
35084;SDS011;21267;51.032;6.998;2023-10-08T10:44:54;15.55;;;7.15;;
35084;SDS011;21267;51.032;6.998;2023-10-08T10:47:23;12.73;;;6.82;;
35084;SDS011;21267;51.032;6.998;2023-10-08T10:49:54;19.48;;;7.65;;
35084;SDS011;21267;51.032;6.998;2023-10-08T10:54:59;18.50;;;10.15;;
35084;SDS011;21267;51.032;6.998;2023-10-08T10:57:50;16.88;;;9.02;;
35084;SDS011;21267;51.032;6.998;2023-10-08T11:00:41;15.55;;;9.07;;
35084;SDS011;21267;51.032;6.998;2023-10-08T11:03:08;15.15;;;8.30;;
35084;SDS011;21267;51.032;6.998;2023-10-08T11:05:51;17.38;;;8.48;;
35084;SDS011;21267;51.032;6.998;2023-10-08T11:08:21;20.48;;;8.48;;
35084;SDS011;21267;51.032;6.998;2023-10-08T11:10:52;20.60;;;7.78;;
35084;SDS011;21267;51.032;6.998;2023-10-08T11:13:25;19.33;;;8.93;;
35084;SDS011;21267;51.032;6.998;2023-10-08T11:15:55;16.95;;;8.55;;
35084;SDS011;21267;51.032;6.998;2023-10-08T11:18:26;15.95;;;9.27;;
35084;SDS011;21267;51.032;6.998;2023-10-08T11:21:06;16.15;;;9.18;;
35084;SDS011;21267;51.032;6.998;2023-10-08T11:23:44;18.07;;;8.77;;
35084;SDS011;21267;51.032;6.998;2023-10-08T11:26:26;15.90;;;8.15;;
35084;SDS011;21267;51.032;6.998;2023-10-08T11:29:06;19.20;;;8.52;;
35084;SDS011;21267;51.032;6.998;2023-10-08T11:31:41;15.30;;;9.45;;
35084;SDS011;21267;51.032;6.998;2023-10-08T11:34:10;18.30;;;10.38;;
35084;SDS011;21267;51.032;6.998;2023-10-08T11:36:40;16.35;;;9.90;;
35084;SDS011;21267;51.032;6.998;2023-10-08T11:39:20;18.90;;;10.13;;
35084;SDS011;21267;51.032;6.998;2023-10-08T11:41:56;19.65;;;10.85;;
35084;SDS011;21267;51.032;6.998;2023-10-08T11:44:24;25.73;;;12.43;;
35084;SDS011;21267;51.032;6.998;2023-10-08T11:46:57;19.52;;;10.82;;
35084;SDS011;21267;51.032;6.998;2023-10-08T11:49:31;25.80;;;10.90;;
35084;SDS011;21267;51.032;6.998;2023-10-08T11:52:03;21.20;;;10.60;;
35084;SDS011;21267;51.032;6.998;2023-10-08T11:54:30;21.85;;;10.25;;
35084;SDS011;21267;51.032;6.998;2023-10-08T11:56:59;21.77;;;9.85;;
35084;SDS011;21267;51.032;6.998;2023-10-08T11:59:29;19.33;;;9.73;;
35084;SDS011;21267;51.032;6.998;2023-10-08T12:01:58;18.63;;;9.55;;
35084;SDS011;21267;51.032;6.998;2023-10-08T12:04:25;16.60;;;9.85;;
35084;SDS011;21267;51.032;6.998;2023-10-08T12:06:56;19.05;;;9.85;;
35084;SDS011;21267;51.032;6.998;2023-10-08T12:09:23;21.02;;;10.40;;
35084;SDS011;21267;51.032;6.998;2023-10-08T12:11:54;24.40;;;10.90;;
35084;SDS011;21267;51.032;6.998;2023-10-08T12:14:23;17.95;;;9.90;;
35084;SDS011;21267;51.032;6.998;2023-10-08T12:16:57;21.08;;;8.93;;
35084;SDS011;21267;51.032;6.998;2023-10-08T12:19:26;17.45;;;10.20;;
35084;SDS011;21267;51.032;6.998;2023-10-08T12:21:53;16.33;;;9.15;;
35084;SDS011;21267;51.032;6.998;2023-10-08T12:24:20;15.95;;;8.23;;
35084;SDS011;21267;51.032;6.998;2023-10-08T12:26:47;21.25;;;9.80;;
35084;SDS011;21267;51.032;6.998;2023-10-08T12:29:16;18.60;;;10.32;;
35084;SDS011;21267;51.032;6.998;2023-10-08T12:31:45;20.42;;;11.38;;
35084;SDS011;21267;51.032;6.998;2023-10-08T12:34:14;17.45;;;9.15;;
35084;SDS011;21267;51.032;6.998;2023-10-08T12:36:41;18.95;;;10.43;;
35084;SDS011;21267;51.032;6.998;2023-10-08T12:39:08;23.92;;;9.65;;
35084;SDS011;21267;51.032;6.998;2023-10-08T12:41:41;23.15;;;10.23;;
35084;SDS011;21267;51.032;6.998;2023-10-08T12:44:11;21.70;;;10.65;;
35084;SDS011;21267;51.032;6.998;2023-10-08T12:46:39;19.58;;;9.88;;
35084;SDS011;21267;51.032;6.998;2023-10-08T12:49:09;20.30;;;10.07;;
35084;SDS011;21267;51.032;6.998;2023-10-08T12:51:37;24.10;;;9.85;;
35084;SDS011;21267;51.032;6.998;2023-10-08T12:54:08;24.25;;;10.65;;
35084;SDS011;21267;51.032;6.998;2023-10-08T12:56:38;21.13;;;10.77;;
35084;SDS011;21267;51.032;6.998;2023-10-08T12:59:12;22.10;;;12.30;;
35084;SDS011;21267;51.032;6.998;2023-10-08T13:01:48;23.70;;;12.35;;
35084;SDS011;21267;51.032;6.998;2023-10-08T13:04:21;19.35;;;12.02;;
35084;SDS011;21267;51.032;6.998;2023-10-08T13:06:55;28.90;;;16.90;;
35084;SDS011;21267;51.032;6.998;2023-10-08T13:09:24;21.92;;;12.68;;
35084;SDS011;21267;51.032;6.998;2023-10-08T13:11:51;24.40;;;11.23;;
35084;SDS011;21267;51.032;6.998;2023-10-08T13:14:18;26.52;;;12.98;;
35084;SDS011;21267;51.032;6.998;2023-10-08T13:16:45;26.37;;;12.27;;
35084;SDS011;21267;51.032;6.998;2023-10-08T13:19:15;17.08;;;11.20;;
35084;SDS011;21267;51.032;6.998;2023-10-08T13:21:42;27.70;;;11.50;;
35084;SDS011;21267;51.032;6.998;2023-10-08T13:24:10;21.67;;;10.48;;
35084;SDS011;21267;51.032;6.998;2023-10-08T13:26:37;16.67;;;9.90;;
35084;SDS011;21267;51.032;6.998;2023-10-08T13:29:05;19.48;;;10.77;;
35084;SDS011;21267;51.032;6.998;2023-10-08T13:31:32;19.55;;;10.32;;
35084;SDS011;21267;51.032;6.998;2023-10-08T13:34:03;20.63;;;10.20;;
35084;SDS011;21267;51.032;6.998;2023-10-08T13:36:35;20.80;;;10.93;;
35084;SDS011;21267;51.032;6.998;2023-10-08T13:39:06;17.40;;;9.88;;
35084;SDS011;21267;51.032;6.998;2023-10-08T13:41:37;21.73;;;10.23;;
35084;SDS011;21267;51.032;6.998;2023-10-08T13:44:05;16.92;;;8.27;;
35084;SDS011;21267;51.032;6.998;2023-10-08T13:46:32;16.13;;;9.45;;
35084;SDS011;21267;51.032;6.998;2023-10-08T13:49:03;14.77;;;9.13;;
35084;SDS011;21267;51.032;6.998;2023-10-08T13:51:32;19.60;;;9.23;;
35084;SDS011;21267;51.032;6.998;2023-10-08T13:54:01;16.27;;;8.95;;
35084;SDS011;21267;51.032;6.998;2023-10-08T13:56:36;18.65;;;10.60;;
35084;SDS011;21267;51.032;6.998;2023-10-08T13:59:04;17.70;;;9.82;;
35084;SDS011;21267;51.032;6.998;2023-10-08T14:01:41;16.02;;;9.35;;
35084;SDS011;21267;51.032;6.998;2023-10-08T14:04:19;19.65;;;10.25;;
35084;SDS011;21267;51.032;6.998;2023-10-08T14:06:47;25.92;;;14.38;;
35084;SDS011;21267;51.032;6.998;2023-10-08T14:09:19;36.58;;;25.40;;
35084;SDS011;21267;51.032;6.998;2023-10-08T14:11:59;16.23;;;9.35;;
35084;SDS011;21267;51.032;6.998;2023-10-08T14:14:27;17.67;;;9.35;;
35084;SDS011;21267;51.032;6.998;2023-10-08T14:16:58;21.88;;;9.80;;
35084;SDS011;21267;51.032;6.998;2023-10-08T14:22:13;18.30;;;9.55;;
35084;SDS011;21267;51.032;6.998;2023-10-08T14:24:45;21.23;;;10.15;;
35084;SDS011;21267;51.032;6.998;2023-10-08T14:27:13;18.95;;;10.25;;
35084;SDS011;21267;51.032;6.998;2023-10-08T14:29:43;16.98;;;9.43;;
35084;SDS011;21267;51.032;6.998;2023-10-08T14:32:17;15.80;;;9.13;;
35084;SDS011;21267;51.032;6.998;2023-10-08T14:34:44;20.80;;;9.60;;
35084;SDS011;21267;51.032;6.998;2023-10-08T14:37:14;18.95;;;9.45;;
35084;SDS011;21267;51.032;6.998;2023-10-08T14:40:00;19.60;;;9.63;;
35084;SDS011;21267;51.032;6.998;2023-10-08T14:42:45;19.17;;;10.20;;
35084;SDS011;21267;51.032;6.998;2023-10-08T14:45:29;27.45;;;11.48;;
35084;SDS011;21267;51.032;6.998;2023-10-08T14:48:02;19.55;;;10.30;;
35084;SDS011;21267;51.032;6.998;2023-10-08T14:50:33;29.65;;;16.05;;
35084;SDS011;21267;51.032;6.998;2023-10-08T14:53:00;21.13;;;9.88;;
35084;SDS011;21267;51.032;6.998;2023-10-08T14:55:28;15.35;;;9.57;;
35084;SDS011;21267;51.032;6.998;2023-10-08T14:57:56;24.08;;;9.80;;
35084;SDS011;21267;51.032;6.998;2023-10-08T15:00:23;22.73;;;10.90;;
35084;SDS011;21267;51.032;6.998;2023-10-08T15:02:53;21.10;;;10.68;;
35084;SDS011;21267;51.032;6.998;2023-10-08T15:05:22;22.92;;;11.70;;
35084;SDS011;21267;51.032;6.998;2023-10-08T15:07:49;20.83;;;10.15;;
35084;SDS011;21267;51.032;6.998;2023-10-08T15:10:18;17.60;;;9.70;;
35084;SDS011;21267;51.032;6.998;2023-10-08T15:12:46;20.58;;;10.88;;
35084;SDS011;21267;51.032;6.998;2023-10-08T15:15:14;22.98;;;12.68;;
35084;SDS011;21267;51.032;6.998;2023-10-08T15:17:42;18.35;;;11.90;;
35084;SDS011;21267;51.032;6.998;2023-10-08T15:20:10;42.10;;;29.98;;
35084;SDS011;21267;51.032;6.998;2023-10-08T15:22:41;20.85;;;11.80;;
35084;SDS011;21267;51.032;6.998;2023-10-08T15:25:11;21.90;;;11.02;;
35084;SDS011;21267;51.032;6.998;2023-10-08T15:27:41;18.60;;;10.32;;
35084;SDS011;21267;51.032;6.998;2023-10-08T15:30:10;23.02;;;10.90;;
35084;SDS011;21267;51.032;6.998;2023-10-08T15:32:39;18.23;;;11.07;;
35084;SDS011;21267;51.032;6.998;2023-10-08T15:35:07;19.98;;;10.50;;
35084;SDS011;21267;51.032;6.998;2023-10-08T15:37:36;21.65;;;9.52;;
35084;SDS011;21267;51.032;6.998;2023-10-08T15:40:04;15.77;;;9.25;;
35084;SDS011;21267;51.032;6.998;2023-10-08T15:42:35;19.15;;;10.02;;
35084;SDS011;21267;51.032;6.998;2023-10-08T15:45:03;18.98;;;9.32;;
35084;SDS011;21267;51.032;6.998;2023-10-08T15:47:33;26.80;;;12.80;;
35084;SDS011;21267;51.032;6.998;2023-10-08T15:50:02;25.55;;;11.00;;